Terminal Aerodrome Forecast
Issued by NWS

Home | Current Version | Previous Version | Text Only | Print | Product List | Glossary On
Versions: 1 2 3 4 5 6 7 8 9 10 11 12 13 14 15 16
000
FTUS43 KABR 231738
TAFMBG
TAF
KMBG 231738Z 2318/2418 11007KT P6SM FEW250
     FM240100 06007KT P6SM BKN050
     FM240600 03017KT P6SM SHRA OVC030
     FM241200 01014G24KT 3SM SHRA OVC015
     FM241600 01011G18KT P6SM BKN015=

USA.gov is the U.S. government's official web portal to all federal, state and local government web resources and services.